SWA267 KDCA-KATL
Flight info
| Callsign | SWA267 |
|---|---|
| Flight time | 1h 28m |
| Altitude | 38000 |
| Route | CLTCH3 FLASK OZZZI2 |
| Aircraft | B737/M-SDE2E3FGHIRWXY/LB1 |
Departure
| Time | 2026-04-30 18:51 |
|---|---|
| Airport | Ronald Reagan Washington National Airport (KDCA) |
Arrival
| Time | 2026-04-30 20:20 |
|---|---|
| Airport | Hartsfield Jackson Atlanta International Airport (KATL) |
| Time | Latitude | Longitude | Altitude | Speed | Heading |
|---|---|---|---|---|---|
| 2026-04-30 18:11 | 38.84627 | -77.04290 | 23 ft | 0 kts | 29° |
| 2026-04-30 18:45 | 38.84598 | -77.04374 | 26 ft | 0 kts | 127° |
| 2026-04-30 18:46 | 38.84593 | -77.04365 | 27 ft | 3 kts | 128° |
| 2026-04-30 18:47 | 38.84573 | -77.04330 | 25 ft | 7 kts | 118° |
| 2026-04-30 18:47 | 38.84566 | -77.04258 | 25 ft | 9 kts | 81° |
| 2026-04-30 18:47 | 38.84578 | -77.04183 | 25 ft | 9 kts | 78° |
| 2026-04-30 18:47 | 38.84591 | -77.04110 | 23 ft | 8 kts | 75° |
| 2026-04-30 18:48 | 38.84605 | -77.04064 | 23 ft | 8 kts | 73° |
| 2026-04-30 18:48 | 38.84569 | -77.04021 | 23 ft | 8 kts | 169° |
| 2026-04-30 18:48 | 38.84508 | -77.04008 | 24 ft | 10 kts | 170° |
| 2026-04-30 18:48 | 38.84439 | -77.03993 | 26 ft | 10 kts | 170° |
| 2026-04-30 18:49 | 38.84372 | -77.03977 | 29 ft | 10 kts | 163° |
| 2026-04-30 18:49 | 38.84326 | -77.03918 | 28 ft | 10 kts | 115° |
| 2026-04-30 18:49 | 38.84289 | -77.03845 | 25 ft | 10 kts | 142° |
| 2026-04-30 18:49 | 38.84232 | -77.03802 | 25 ft | 10 kts | 134° |
| 2026-04-30 18:50 | 38.84196 | -77.03732 | 25 ft | 9 kts | 112° |
| 2026-04-30 18:50 | 38.84232 | -77.03683 | 23 ft | 10 kts | 358° |
| 2026-04-30 18:50 | 38.84342 | -77.03694 | 22 ft | 37 kts | 355° |
| 2026-04-30 18:50 | 38.84861 | -77.03747 | 24 ft | 111 kts | 356° |
| 2026-04-30 18:51 | 38.85823 | -77.03835 | 126 ft | 155 kts | 350° |
| 2026-04-30 18:51 | 38.86893 | -77.03929 | 839 ft | 153 kts | 346° |
| 2026-04-30 18:51 | 38.87749 | -77.04529 | 1669 ft | 146 kts | 316° |
| 2026-04-30 18:51 | 38.88598 | -77.05475 | 1985 ft | 177 kts | 317° |
| 2026-04-30 18:52 | 38.89615 | -77.06600 | 2273 ft | 207 kts | 315° |
| 2026-04-30 18:52 | 38.90524 | -77.08124 | 2650 ft | 231 kts | 297° |
| 2026-04-30 18:52 | 38.91303 | -77.09999 | 3394 ft | 244 kts | 300° |
| 2026-04-30 18:52 | 38.92535 | -77.11550 | 4390 ft | 250 kts | 326° |
| 2026-04-30 18:53 | 38.94044 | -77.12704 | 5366 ft | 254 kts | 327° |
| 2026-04-30 18:53 | 38.95571 | -77.13884 | 6276 ft | 259 kts | 323° |
| 2026-04-30 18:53 | 38.96688 | -77.15675 | 7163 ft | 256 kts | 294° |
| 2026-04-30 18:53 | 38.97250 | -77.17822 | 8212 ft | 257 kts | 281° |
| 2026-04-30 18:54 | 38.97579 | -77.20097 | 9225 ft | 259 kts | 279° |
| 2026-04-30 18:54 | 38.97888 | -77.22378 | 10251 ft | 260 kts | 279° |
| 2026-04-30 18:54 | 38.98166 | -77.24746 | 10728 ft | 281 kts | 271° |
| 2026-04-30 18:54 | 38.97765 | -77.27313 | 11035 ft | 306 kts | 247° |
| 2026-04-30 18:55 | 38.96515 | -77.29588 | 11767 ft | 320 kts | 226° |
| 2026-04-30 18:55 | 38.92895 | -77.32999 | 13834 ft | 324 kts | 219° |
| 2026-04-30 18:55 | 38.91024 | -77.34635 | 14760 ft | 326 kts | 219° |
| 2026-04-30 18:56 | 38.87255 | -77.37973 | 16606 ft | 330 kts | 220° |
| 2026-04-30 18:56 | 38.85367 | -77.39666 | 17541 ft | 333 kts | 220° |
| 2026-04-30 18:56 | 38.83449 | -77.41395 | 18359 ft | 338 kts | 220° |
| 2026-04-30 18:57 | 38.79562 | -77.44907 | 19884 ft | 346 kts | 220° |
| 2026-04-30 18:57 | 38.77583 | -77.46696 | 20601 ft | 350 kts | 221° |
| 2026-04-30 18:57 | 38.75579 | -77.48505 | 21323 ft | 354 kts | 221° |
| 2026-04-30 18:58 | 38.71740 | -77.52499 | 22745 ft | 356 kts | 231° |
| 2026-04-30 18:58 | 38.70072 | -77.54852 | 23442 ft | 359 kts | 233° |
| 2026-04-30 18:58 | 38.68414 | -77.57260 | 23986 ft | 362 kts | 233° |
| 2026-04-30 18:59 | 38.65027 | -77.62133 | 25175 ft | 368 kts | 232° |
| 2026-04-30 19:00 | 38.59785 | -77.69509 | 26829 ft | 378 kts | 232° |
| 2026-04-30 19:00 | 38.58006 | -77.71994 | 27370 ft | 380 kts | 232° |
| 2026-04-30 19:00 | 38.54414 | -77.77008 | 28434 ft | 385 kts | 232° |
| 2026-04-30 19:01 | 38.50770 | -77.82106 | 29395 ft | 391 kts | 232° |
| 2026-04-30 19:01 | 38.49170 | -77.84362 | 29891 ft | 391 kts | 232° |
| 2026-04-30 19:02 | 38.45576 | -77.89417 | 30978 ft | 387 kts | 232° |
| 2026-04-30 19:02 | 38.42209 | -77.94837 | 31853 ft | 386 kts | 239° |
| 2026-04-30 19:03 | 38.39180 | -78.00468 | 32848 ft | 384 kts | 240° |
| 2026-04-30 19:03 | 38.36141 | -78.06075 | 33724 ft | 385 kts | 240° |
| 2026-04-30 19:04 | 38.33068 | -78.11642 | 34480 ft | 384 kts | 239° |
| 2026-04-30 19:04 | 38.29979 | -78.17193 | 35169 ft | 384 kts | 239° |
| 2026-04-30 19:05 | 38.26905 | -78.22701 | 35935 ft | 379 kts | 239° |
| 2026-04-30 19:05 | 38.23845 | -78.28182 | 36533 ft | 381 kts | 239° |
| 2026-04-30 19:06 | 38.20780 | -78.33661 | 37224 ft | 379 kts | 239° |
| 2026-04-30 19:06 | 38.19250 | -78.36391 | 37543 ft | 379 kts | 239° |
| 2026-04-30 19:06 | 38.16154 | -78.41838 | 37853 ft | 384 kts | 238° |
| 2026-04-30 19:07 | 38.11291 | -78.49935 | 37875 ft | 380 kts | 237° |
| 2026-04-30 19:08 | 38.04902 | -78.60552 | 37878 ft | 376 kts | 238° |
| 2026-04-30 19:09 | 38.00150 | -78.68463 | 37894 ft | 376 kts | 238° |
| 2026-04-30 19:09 | 37.96978 | -78.73733 | 37881 ft | 376 kts | 238° |
| 2026-04-30 19:10 | 37.90612 | -78.84285 | 37874 ft | 377 kts | 238° |
| 2026-04-30 19:11 | 37.85823 | -78.92199 | 37881 ft | 378 kts | 238° |
| 2026-04-30 19:12 | 37.82625 | -78.97472 | 37886 ft | 378 kts | 238° |
| 2026-04-30 19:12 | 37.79420 | -79.02751 | 37885 ft | 378 kts | 238° |
| 2026-04-30 19:13 | 37.73004 | -79.13294 | 37962 ft | 378 kts | 238° |
| 2026-04-30 19:14 | 37.69792 | -79.18560 | 37983 ft | 379 kts | 238° |
| 2026-04-30 19:14 | 37.66608 | -79.23849 | 37982 ft | 378 kts | 239° |
| 2026-04-30 19:15 | 37.63467 | -79.29165 | 37996 ft | 378 kts | 239° |
| 2026-04-30 19:15 | 37.58719 | -79.37190 | 38000 ft | 387 kts | 239° |
| 2026-04-30 19:16 | 37.55450 | -79.42692 | 37909 ft | 389 kts | 239° |
| 2026-04-30 19:17 | 37.50575 | -79.50860 | 37902 ft | 388 kts | 239° |
| 2026-04-30 19:17 | 37.45717 | -79.58988 | 37898 ft | 387 kts | 240° |
| 2026-04-30 19:18 | 37.40867 | -79.67084 | 37916 ft | 385 kts | 240° |
| 2026-04-30 19:19 | 37.37640 | -79.72459 | 37928 ft | 385 kts | 240° |
| 2026-04-30 19:19 | 37.32811 | -79.80487 | 37943 ft | 383 kts | 240° |
| 2026-04-30 19:20 | 37.29603 | -79.85813 | 37955 ft | 382 kts | 240° |
| 2026-04-30 19:21 | 37.24800 | -79.93758 | 37895 ft | 380 kts | 240° |
| 2026-04-30 19:22 | 37.18429 | -80.04281 | 37937 ft | 378 kts | 241° |
| 2026-04-30 19:23 | 37.09517 | -80.18942 | 37964 ft | 365 kts | 242° |
| 2026-04-30 19:24 | 37.04945 | -80.26439 | 37944 ft | 358 kts | 242° |
| 2026-04-30 19:25 | 36.96695 | -80.38334 | 37957 ft | 369 kts | 235° |
| 2026-04-30 19:26 | 36.89432 | -80.47447 | 37935 ft | 370 kts | 236° |
| 2026-04-30 19:27 | 36.84006 | -80.54348 | 37922 ft | 371 kts | 237° |
| 2026-04-30 19:28 | 36.78591 | -80.61241 | 37915 ft | 371 kts | 237° |
| 2026-04-30 19:29 | 36.71335 | -80.70453 | 37950 ft | 370 kts | 237° |
| 2026-04-30 19:30 | 36.64124 | -80.79584 | 37946 ft | 369 kts | 237° |
| 2026-04-30 19:31 | 36.56944 | -80.88650 | 37934 ft | 366 kts | 237° |
| 2026-04-30 19:31 | 36.51589 | -80.95389 | 37944 ft | 363 kts | 237° |
| 2026-04-30 19:32 | 36.48040 | -80.99856 | 37928 ft | 363 kts | 238° |
| 2026-04-30 19:32 | 36.44493 | -81.04315 | 37928 ft | 363 kts | 238° |
| 2026-04-30 19:33 | 36.40918 | -81.08738 | 37887 ft | 363 kts | 237° |
| 2026-04-30 19:33 | 36.37407 | -81.13173 | 37949 ft | 360 kts | 238° |
| 2026-04-30 19:34 | 36.33890 | -81.17599 | 37962 ft | 360 kts | 238° |
| 2026-04-30 19:35 | 36.28579 | -81.24236 | 37968 ft | 362 kts | 237° |
| 2026-04-30 19:35 | 36.24995 | -81.28707 | 37951 ft | 364 kts | 238° |
| 2026-04-30 19:36 | 36.21432 | -81.33157 | 37950 ft | 364 kts | 238° |
| 2026-04-30 19:36 | 36.16081 | -81.39810 | 37905 ft | 362 kts | 238° |
| 2026-04-30 19:37 | 36.12521 | -81.44230 | 37907 ft | 362 kts | 238° |
| 2026-04-30 19:37 | 36.08975 | -81.48641 | 37891 ft | 361 kts | 238° |
| 2026-04-30 19:38 | 36.05421 | -81.53039 | 37889 ft | 362 kts | 238° |
| 2026-04-30 19:38 | 36.01862 | -81.57447 | 37882 ft | 363 kts | 238° |
| 2026-04-30 19:39 | 35.98279 | -81.61814 | 37880 ft | 360 kts | 238° |
| 2026-04-30 19:39 | 35.94753 | -81.66185 | 37839 ft | 359 kts | 239° |
| 2026-04-30 19:40 | 35.91238 | -81.70548 | 37875 ft | 359 kts | 239° |
| 2026-04-30 19:40 | 35.87706 | -81.74906 | 37883 ft | 359 kts | 238° |
| 2026-04-30 19:41 | 35.84166 | -81.79259 | 37943 ft | 360 kts | 238° |
| 2026-04-30 19:41 | 35.80614 | -81.83620 | 37935 ft | 361 kts | 238° |
| 2026-04-30 19:42 | 35.77036 | -81.87972 | 37917 ft | 362 kts | 238° |
| 2026-04-30 19:42 | 35.73415 | -81.92298 | 37911 ft | 363 kts | 238° |
| 2026-04-30 19:43 | 35.69766 | -81.96652 | 37899 ft | 363 kts | 238° |
| 2026-04-30 19:44 | 35.64334 | -82.03136 | 37893 ft | 363 kts | 238° |
| 2026-04-30 19:44 | 35.60716 | -82.07451 | 37907 ft | 362 kts | 238° |
| 2026-04-30 19:45 | 35.57094 | -82.11768 | 37900 ft | 363 kts | 238° |
| 2026-04-30 19:45 | 35.53486 | -82.16080 | 37915 ft | 361 kts | 238° |
| 2026-04-30 19:46 | 35.49871 | -82.20360 | 37852 ft | 360 kts | 238° |
| 2026-04-30 19:46 | 35.46273 | -82.24615 | 37888 ft | 359 kts | 237° |
| 2026-04-30 19:47 | 35.42664 | -82.28890 | 37904 ft | 363 kts | 238° |
| 2026-04-30 19:47 | 35.39102 | -82.33302 | 37889 ft | 365 kts | 239° |
| 2026-04-30 19:48 | 35.35537 | -82.37750 | 37884 ft | 367 kts | 239° |
| 2026-04-30 19:48 | 35.31954 | -82.42201 | 37898 ft | 364 kts | 239° |
| 2026-04-30 19:49 | 35.28444 | -82.46540 | 37895 ft | 356 kts | 239° |
| 2026-04-30 19:49 | 35.23224 | -82.53013 | 37910 ft | 356 kts | 240° |
| 2026-04-30 19:50 | 35.19756 | -82.57304 | 37925 ft | 355 kts | 239° |
| 2026-04-30 19:50 | 35.16267 | -82.61613 | 37919 ft | 358 kts | 239° |
| 2026-04-30 19:51 | 35.12695 | -82.65904 | 37900 ft | 362 kts | 238° |
| 2026-04-30 19:51 | 35.09042 | -82.70218 | 37899 ft | 364 kts | 238° |
| 2026-04-30 19:52 | 35.05377 | -82.74554 | 37462 ft | 371 kts | 237° |
| 2026-04-30 19:52 | 35.03510 | -82.76695 | 36936 ft | 367 kts | 238° |
| 2026-04-30 19:52 | 35.01698 | -82.78845 | 36393 ft | 363 kts | 238° |
| 2026-04-30 19:53 | 34.99910 | -82.80999 | 35876 ft | 360 kts | 239° |
| 2026-04-30 19:53 | 34.98129 | -82.83131 | 35462 ft | 357 kts | 238° |
| 2026-04-30 19:53 | 34.96365 | -82.85246 | 35007 ft | 355 kts | 238° |
| 2026-04-30 19:53 | 34.94596 | -82.87327 | 34585 ft | 352 kts | 238° |
| 2026-04-30 19:54 | 34.92839 | -82.89378 | 34173 ft | 349 kts | 238° |
| 2026-04-30 19:54 | 34.91087 | -82.91403 | 33747 ft | 345 kts | 238° |
| 2026-04-30 19:54 | 34.89357 | -82.93400 | 33297 ft | 341 kts | 238° |
| 2026-04-30 19:54 | 34.87647 | -82.95374 | 32869 ft | 336 kts | 238° |
| 2026-04-30 19:55 | 34.86531 | -82.96663 | 32616 ft | 333 kts | 238° |
| 2026-04-30 19:55 | 34.84860 | -82.98595 | 32201 ft | 329 kts | 238° |
| 2026-04-30 19:55 | 34.83211 | -83.00504 | 31796 ft | 326 kts | 237° |
| 2026-04-30 19:55 | 34.81578 | -83.02394 | 31401 ft | 322 kts | 237° |
| 2026-04-30 19:56 | 34.79963 | -83.04264 | 31022 ft | 319 kts | 237° |
| 2026-04-30 19:56 | 34.78342 | -83.06137 | 30610 ft | 315 kts | 237° |
| 2026-04-30 19:56 | 34.76760 | -83.07962 | 30249 ft | 312 kts | 237° |
| 2026-04-30 19:56 | 34.75193 | -83.09769 | 29860 ft | 309 kts | 237° |
| 2026-04-30 19:57 | 34.73640 | -83.11558 | 29428 ft | 306 kts | 236° |
| 2026-04-30 19:57 | 34.72104 | -83.13325 | 29085 ft | 302 kts | 236° |
| 2026-04-30 19:57 | 34.70576 | -83.15085 | 28672 ft | 302 kts | 236° |
| 2026-04-30 19:57 | 34.69054 | -83.16838 | 28224 ft | 302 kts | 236° |
| 2026-04-30 19:58 | 34.67535 | -83.18587 | 27837 ft | 301 kts | 236° |
| 2026-04-30 19:58 | 34.66010 | -83.20344 | 27415 ft | 302 kts | 235° |
| 2026-04-30 19:58 | 34.64483 | -83.22100 | 27014 ft | 303 kts | 235° |
| 2026-04-30 19:58 | 34.62948 | -83.23864 | 26592 ft | 304 kts | 235° |
| 2026-04-30 19:59 | 34.61410 | -83.25631 | 26188 ft | 305 kts | 234° |
| 2026-04-30 19:59 | 34.59862 | -83.27409 | 25767 ft | 307 kts | 234° |
| 2026-04-30 19:59 | 34.56739 | -83.30989 | 24935 ft | 310 kts | 234° |
| 2026-04-30 20:00 | 34.55165 | -83.32793 | 24480 ft | 312 kts | 233° |
| 2026-04-30 20:00 | 34.53592 | -83.34601 | 24085 ft | 312 kts | 233° |
| 2026-04-30 20:00 | 34.52018 | -83.36411 | 23681 ft | 311 kts | 232° |
| 2026-04-30 20:00 | 34.50447 | -83.38216 | 23203 ft | 312 kts | 232° |
| 2026-04-30 20:01 | 34.47312 | -83.41816 | 22270 ft | 308 kts | 232° |
| 2026-04-30 20:01 | 34.45760 | -83.43597 | 21828 ft | 307 kts | 232° |
| 2026-04-30 20:01 | 34.44214 | -83.45370 | 21396 ft | 305 kts | 232° |
| 2026-04-30 20:02 | 34.41145 | -83.48889 | 20559 ft | 302 kts | 232° |
| 2026-04-30 20:02 | 34.39621 | -83.50636 | 20157 ft | 301 kts | 231° |
| 2026-04-30 20:03 | 34.36583 | -83.54116 | 19357 ft | 300 kts | 231° |
| 2026-04-30 20:03 | 34.35071 | -83.55847 | 18923 ft | 300 kts | 231° |
| 2026-04-30 20:03 | 34.33556 | -83.57581 | 18506 ft | 300 kts | 231° |
| 2026-04-30 20:03 | 34.32018 | -83.59340 | 18048 ft | 301 kts | 230° |
| 2026-04-30 20:04 | 34.30497 | -83.61075 | 17572 ft | 300 kts | 231° |
| 2026-04-30 20:04 | 34.28986 | -83.62797 | 17148 ft | 297 kts | 230° |
| 2026-04-30 20:04 | 34.27458 | -83.64474 | 16743 ft | 297 kts | 229° |
| 2026-04-30 20:05 | 34.24364 | -83.67749 | 15927 ft | 295 kts | 228° |
| 2026-04-30 20:05 | 34.22824 | -83.69375 | 15522 ft | 293 kts | 227° |
| 2026-04-30 20:05 | 34.19762 | -83.72620 | 14740 ft | 292 kts | 227° |
| 2026-04-30 20:06 | 34.18236 | -83.74241 | 14341 ft | 292 kts | 227° |
| 2026-04-30 20:06 | 34.16715 | -83.75856 | 13941 ft | 292 kts | 226° |
| 2026-04-30 20:06 | 34.15189 | -83.77478 | 13515 ft | 292 kts | 226° |
| 2026-04-30 20:06 | 34.13666 | -83.79096 | 13069 ft | 292 kts | 226° |
| 2026-04-30 20:07 | 34.12141 | -83.80713 | 12643 ft | 291 kts | 226° |
| 2026-04-30 20:07 | 34.10621 | -83.82324 | 12228 ft | 290 kts | 226° |
| 2026-04-30 20:07 | 34.07625 | -83.85519 | 11599 ft | 285 kts | 226° |
| 2026-04-30 20:08 | 34.06143 | -83.87112 | 11316 ft | 285 kts | 226° |
| 2026-04-30 20:08 | 34.04667 | -83.88699 | 11052 ft | 285 kts | 225° |
| 2026-04-30 20:08 | 34.03188 | -83.90289 | 10777 ft | 284 kts | 225° |
| 2026-04-30 20:08 | 34.01713 | -83.91871 | 10500 ft | 284 kts | 225° |
| 2026-04-30 20:09 | 34.00240 | -83.93450 | 10226 ft | 283 kts | 225° |
| 2026-04-30 20:09 | 33.98784 | -83.95008 | 9951 ft | 277 kts | 225° |
| 2026-04-30 20:09 | 33.95340 | -83.96806 | 9381 ft | 279 kts | 186° |
| 2026-04-30 20:10 | 33.91438 | -83.96673 | 8934 ft | 280 kts | 180° |
| 2026-04-30 20:10 | 33.89498 | -83.96554 | 8816 ft | 279 kts | 180° |
| 2026-04-30 20:10 | 33.87549 | -83.96447 | 8702 ft | 280 kts | 180° |
| 2026-04-30 20:11 | 33.83648 | -83.96262 | 8459 ft | 281 kts | 181° |
| 2026-04-30 20:11 | 33.81665 | -83.96175 | 8347 ft | 282 kts | 181° |
| 2026-04-30 20:11 | 33.79700 | -83.96092 | 8219 ft | 283 kts | 181° |
| 2026-04-30 20:12 | 33.75771 | -83.95961 | 7974 ft | 282 kts | 187° |
| 2026-04-30 20:12 | 33.73892 | -83.96576 | 7699 ft | 282 kts | 206° |
| 2026-04-30 20:12 | 33.72093 | -83.97514 | 7426 ft | 280 kts | 206° |
| 2026-04-30 20:13 | 33.70315 | -83.98436 | 7149 ft | 277 kts | 206° |
| 2026-04-30 20:13 | 33.68561 | -83.99355 | 6881 ft | 274 kts | 206° |
| 2026-04-30 20:13 | 33.66815 | -84.00287 | 6597 ft | 275 kts | 209° |
| 2026-04-30 20:13 | 33.65385 | -84.01748 | 6313 ft | 271 kts | 242° |
| 2026-04-30 20:14 | 33.64873 | -84.03859 | 6051 ft | 264 kts | 270° |
| 2026-04-30 20:14 | 33.64910 | -84.06044 | 5824 ft | 261 kts | 275° |
| 2026-04-30 20:14 | 33.64983 | -84.08211 | 5687 ft | 260 kts | 275° |
| 2026-04-30 20:14 | 33.65008 | -84.10380 | 5551 ft | 260 kts | 273° |
| 2026-04-30 20:15 | 33.65006 | -84.12550 | 5462 ft | 260 kts | 273° |
| 2026-04-30 20:15 | 33.64999 | -84.14743 | 5172 ft | 266 kts | 273° |
| 2026-04-30 20:15 | 33.64992 | -84.16944 | 4847 ft | 263 kts | 273° |
| 2026-04-30 20:15 | 33.64986 | -84.19133 | 4521 ft | 261 kts | 272° |
| 2026-04-30 20:16 | 33.64979 | -84.21290 | 4170 ft | 255 kts | 273° |
| 2026-04-30 20:16 | 33.64977 | -84.23387 | 3841 ft | 246 kts | 272° |
| 2026-04-30 20:16 | 33.64970 | -84.25399 | 3531 ft | 235 kts | 272° |
| 2026-04-30 20:16 | 33.64966 | -84.27312 | 3236 ft | 224 kts | 271° |
| 2026-04-30 20:17 | 33.64966 | -84.29118 | 2938 ft | 208 kts | 273° |
| 2026-04-30 20:17 | 33.64962 | -84.30781 | 2682 ft | 192 kts | 274° |
| 2026-04-30 20:17 | 33.64960 | -84.32324 | 2434 ft | 178 kts | 274° |
| 2026-04-30 20:17 | 33.64959 | -84.33780 | 2201 ft | 165 kts | 273° |
| 2026-04-30 20:18 | 33.64958 | -84.35063 | 2018 ft | 145 kts | 274° |
| 2026-04-30 20:18 | 33.64956 | -84.36232 | 1817 ft | 133 kts | 274° |
| 2026-04-30 20:18 | 33.64967 | -84.37331 | 1655 ft | 132 kts | 275° |
| 2026-04-30 20:18 | 33.64972 | -84.38427 | 1435 ft | 132 kts | 271° |
| 2026-04-30 20:19 | 33.64953 | -84.39546 | 1249 ft | 135 kts | 272° |
| 2026-04-30 20:19 | 33.64955 | -84.40290 | 1139 ft | 135 kts | 275° |
| 2026-04-30 20:19 | 33.64953 | -84.41747 | 1005 ft | 118 kts | 270° |
| 2026-04-30 20:19 | 33.64956 | -84.42546 | 1006 ft | 74 kts | 270° |
| 2026-04-30 20:20 | 33.64953 | -84.42983 | 1005 ft | 35 kts | 266° |
| 2026-04-30 20:20 | 33.64906 | -84.43235 | 1006 ft | 23 kts | 242° |
| 2026-04-30 20:20 | 33.64838 | -84.43311 | 1006 ft | 10 kts | 182° |
| 2026-04-30 20:20 | 33.64792 | -84.43254 | 1006 ft | 10 kts | 102° |
| 2026-04-30 20:21 | 33.64789 | -84.43193 | 1006 ft | 3 kts | 91° |
| 2026-04-30 20:21 | 33.64787 | -84.43173 | 1006 ft | 2 kts | 103° |
| 2026-04-30 20:21 | 33.64775 | -84.43150 | 1006 ft | 5 kts | 131° |
| 2026-04-30 20:21 | 33.64734 | -84.43134 | 1006 ft | 8 kts | 179° |
| 2026-04-30 20:22 | 33.64665 | -84.43148 | 1007 ft | 12 kts | 213° |
| 2026-04-30 20:22 | 33.64619 | -84.43227 | 1007 ft | 11 kts | 240° |
| 2026-04-30 20:22 | 33.64577 | -84.43317 | 1006 ft | 14 kts | 241° |
| 2026-04-30 20:22 | 33.64520 | -84.43414 | 1006 ft | 14 kts | 213° |
| 2026-04-30 20:23 | 33.64427 | -84.43401 | 1005 ft | 14 kts | 158° |
| 2026-04-30 20:23 | 33.64334 | -84.43393 | 1005 ft | 13 kts | 180° |
| 2026-04-30 20:23 | 33.64253 | -84.43393 | 1005 ft | 8 kts | 179° |
| 2026-04-30 20:23 | 33.64225 | -84.43353 | 1005 ft | 6 kts | 90° |
| 2026-04-30 20:24 | 33.64225 | -84.43327 | 1005 ft | 2 kts | 90° |
| 2026-04-30 20:24 | 33.64225 | -84.43324 | 1005 ft | 0 kts | 90° |